createdAt,value
2019-04-25T00:01:52.377Z,6.83
2019-04-25T00:04:19.063Z,8.90
2019-04-25T00:06:45.637Z,8.03
2019-04-25T00:09:12.283Z,7.50
2019-04-25T00:11:39.890Z,7.53
2019-04-25T00:14:06.548Z,8.07
2019-04-25T00:16:36.918Z,9.35
2019-04-25T00:19:03.775Z,8.57
2019-04-25T00:21:32.051Z,7.40
2019-04-25T00:24:02.630Z,7.37
2019-04-25T00:26:32.683Z,7.27
2019-04-25T00:28:59.036Z,6.60
2019-04-25T00:31:31.885Z,6.60
2019-04-25T00:33:59.183Z,7.70
2019-04-25T00:36:25.562Z,6.77
2019-04-25T00:38:54.312Z,6.53
2019-04-25T00:41:23.689Z,6.93
2019-04-25T00:43:53.606Z,7.78
2019-04-25T00:46:22.577Z,7.33
2019-04-25T00:48:52.586Z,7.47
2019-04-25T00:51:19.542Z,7.33
2019-04-25T00:53:48.151Z,7.70
2019-04-25T00:56:15.404Z,6.73
2019-04-25T00:58:43.965Z,8.13
2019-04-25T01:01:15.105Z,6.67
2019-04-25T01:03:45.301Z,7.60
2019-04-25T01:06:13.224Z,7.80
2019-04-25T01:08:41.422Z,8.43
2019-04-25T01:11:11.539Z,7.93
2019-04-25T01:13:37.916Z,7.83
2019-04-25T01:16:05.181Z,7.30
2019-04-25T01:18:33.597Z,6.83
2019-04-25T01:21:05.146Z,6.83
2019-04-25T01:23:33.555Z,6.33
2019-04-25T01:26:00.606Z,8.20
2019-04-25T01:28:27.291Z,7.80
2019-04-25T01:30:56.802Z,9.20
2019-04-25T01:33:23.553Z,7.40
2019-04-25T01:35:54.283Z,7.00
2019-04-25T01:38:20.842Z,6.30
2019-04-25T01:40:49.425Z,7.00
2019-04-25T01:43:16.364Z,7.00
2019-04-25T01:45:44.264Z,6.80
2019-04-25T01:48:13.638Z,7.23
2019-04-25T01:50:39.510Z,7.77
2019-04-25T01:53:08.870Z,7.27
2019-04-25T01:55:37.575Z,6.83
2019-04-25T01:58:05.087Z,7.20
2019-04-25T02:00:35.132Z,7.17
2019-04-25T02:03:04.348Z,7.43
2019-04-25T02:05:31.719Z,7.90
2019-04-25T02:08:00.620Z,5.93
2019-04-25T02:10:27.687Z,7.87
2019-04-25T02:12:58.086Z,8.40
2019-04-25T02:15:26.917Z,7.25
2019-04-25T02:17:57.168Z,7.53
2019-04-25T02:20:24.370Z,7.07
2019-04-25T02:22:52.251Z,7.13
2019-04-25T02:25:20.153Z,7.00
2019-04-25T02:27:46.756Z,6.97
2019-04-25T02:30:15.816Z,7.80
2019-04-25T02:32:44.409Z,7.80
2019-04-25T02:35:14.205Z,6.47
2019-04-25T02:37:45.243Z,7.73
2019-04-25T02:40:13.981Z,6.70
2019-04-25T02:42:44.256Z,7.30
2019-04-25T02:45:16.264Z,7.77
2019-04-25T02:47:44.121Z,7.53
2019-04-25T02:50:09.946Z,8.73
2019-04-25T02:52:40.609Z,7.17
2019-04-25T02:55:10.810Z,8.07
2019-04-25T02:57:38.340Z,6.53
2019-04-25T03:00:08.756Z,8.93
2019-04-25T03:02:37.036Z,8.83
2019-04-25T03:05:09.249Z,8.77
2019-04-25T03:07:36.095Z,7.87
2019-04-25T03:10:06.212Z,8.60
2019-04-25T03:12:36.311Z,9.45
2019-04-25T03:15:05.436Z,8.20
2019-04-25T03:17:34.261Z,9.10
2019-04-25T03:20:06.667Z,9.13
2019-04-25T03:22:35.234Z,10.17
2019-04-25T03:25:06.785Z,8.33
2019-04-25T03:27:33.931Z,10.23
2019-04-25T03:30:04.455Z,9.03
2019-04-25T03:32:31.464Z,9.97
2019-04-25T03:34:58.137Z,8.47
2019-04-25T03:37:26.625Z,9.73
2019-04-25T03:39:57.733Z,7.53
2019-04-25T03:42:30.414Z,6.37
2019-04-25T03:44:56.990Z,8.40
2019-04-25T03:47:27.213Z,7.65
2019-04-25T03:49:57.184Z,8.67
2019-04-25T03:52:30.268Z,8.43
2019-04-25T03:54:59.216Z,7.80
2019-04-25T03:57:28.170Z,8.93
2019-04-25T03:59:56.898Z,8.80
2019-04-25T04:02:25.129Z,9.77
2019-04-25T04:04:53.756Z,8.75
2019-04-25T04:07:24.320Z,9.00
2019-04-25T04:09:51.172Z,8.05
2019-04-25T04:12:18.579Z,8.50
2019-04-25T04:14:47.336Z,8.98
2019-04-25T04:17:16.228Z,9.17
2019-04-25T04:19:45.781Z,7.77
2019-04-25T04:22:16.268Z,9.17
2019-04-25T04:24:46.065Z,8.10
2019-04-25T04:27:16.730Z,7.80
2019-04-25T04:29:45.892Z,7.77
2019-04-25T04:32:16.313Z,7.57
2019-04-25T04:34:45.788Z,8.53
2019-04-25T04:37:16.260Z,9.57
2019-04-25T04:39:47.057Z,9.67
2019-04-25T04:42:17.918Z,9.63
2019-04-25T04:44:49.180Z,10.70
2019-04-25T04:47:18.535Z,9.13
2019-04-25T04:49:46.417Z,8.57
2019-04-25T04:52:16.759Z,8.20
2019-04-25T04:54:44.749Z,8.97
2019-04-25T04:57:23.123Z,8.33
2019-04-25T04:59:43.865Z,8.57
2019-04-25T05:02:09.312Z,7.40
2019-04-25T05:04:35.908Z,7.90
2019-04-25T05:07:08.696Z,7.87
2019-04-25T05:09:35.476Z,7.93
2019-04-25T05:12:04.377Z,8.53
2019-04-25T05:14:33.696Z,8.30
2019-04-25T05:17:04.350Z,9.13
2019-04-25T05:19:30.910Z,8.37
2019-04-25T05:21:59.966Z,7.80
2019-04-25T05:24:34.789Z,7.90
2019-04-25T05:26:59.582Z,9.47
2019-04-25T05:29:29.275Z,8.20
2019-04-25T05:31:57.897Z,8.10
2019-04-25T05:34:25.819Z,7.57
2019-04-25T05:36:53.869Z,8.60
2019-04-25T05:39:20.667Z,7.30
2019-04-25T05:41:47.313Z,8.50
2019-04-25T05:44:15.784Z,8.43
2019-04-25T05:46:43.759Z,8.77
2019-04-25T05:49:13.745Z,8.00
2019-04-25T05:51:40.911Z,8.23
2019-04-25T05:54:10.168Z,6.92
2019-04-25T05:56:36.742Z,8.80
2019-04-25T05:59:05.476Z,8.03
2019-04-25T06:01:32.192Z,8.27
2019-04-25T06:04:01.269Z,7.97
2019-04-25T06:06:30.349Z,8.40
2019-04-25T06:08:56.959Z,8.13
2019-04-25T06:11:23.964Z,7.83
2019-04-25T06:13:55.049Z,8.70
2019-04-25T06:16:27.055Z,8.63
2019-04-25T06:18:54.934Z,8.27
2019-04-25T06:21:23.591Z,8.90
2019-04-25T06:23:52.269Z,8.27
2019-04-25T06:26:29.937Z,7.47
2019-04-25T06:31:15.921Z,6.60
2019-04-25T06:33:44.303Z,6.73
2019-04-25T06:36:14.044Z,7.77
2019-04-25T06:46:04.335Z,7.10
2019-04-25T06:48:33.562Z,7.00
2019-04-25T07:05:59.713Z,5.80
2019-04-25T07:08:31.605Z,5.80
2019-04-25T07:11:03.899Z,5.57
2019-04-25T07:13:30.404Z,5.83
2019-04-25T07:15:57.236Z,4.87
2019-04-25T07:18:30.262Z,4.70
2019-04-25T07:20:55.573Z,4.53
2019-04-25T07:23:23.659Z,4.97
2019-04-25T07:25:50.904Z,4.35
2019-04-25T07:28:24.333Z,4.78
2019-04-25T07:30:51.644Z,3.95
2019-04-25T07:35:43.447Z,4.80
2019-04-25T07:38:14.141Z,3.63
2019-04-25T07:43:11.202Z,4.15
2019-04-25T07:45:41.476Z,4.50
2019-04-25T07:50:53.714Z,3.85
2019-04-25T07:53:24.025Z,3.80
2019-04-25T08:00:53.980Z,4.13
2019-04-25T08:03:20.811Z,4.50
2019-04-25T08:05:48.878Z,4.50
2019-04-25T08:08:19.332Z,4.05
2019-04-25T08:10:47.261Z,4.87
2019-04-25T08:13:14.653Z,4.65
2019-04-25T08:15:43.667Z,4.77
2019-04-25T08:18:11.657Z,4.90
2019-04-25T08:20:40.893Z,4.55
2019-04-25T08:23:11.808Z,4.60
2019-04-25T08:25:40.791Z,4.20
2019-04-25T08:28:08.734Z,3.72
2019-04-25T08:30:38.230Z,4.70
2019-04-25T08:33:07.556Z,3.77
2019-04-25T08:43:04.926Z,3.87
2019-04-25T08:45:37.032Z,4.10
2019-04-25T08:48:06.886Z,4.10
2019-04-25T08:50:39.303Z,3.50
2019-04-25T08:53:04.768Z,4.20
2019-04-25T08:55:32.996Z,3.60
2019-04-25T08:58:01.409Z,3.87
2019-04-25T09:00:28.273Z,3.37
2019-04-25T09:02:55.366Z,5.37
2019-04-25T09:05:36.033Z,4.28
2019-04-25T09:08:04.177Z,3.10
2019-04-25T09:10:31.272Z,3.60
2019-04-25T09:12:57.861Z,4.60
2019-04-25T09:15:27.106Z,3.77
2019-04-25T09:17:54.895Z,3.73
2019-04-25T09:20:24.210Z,3.80
2019-04-25T09:22:51.283Z,3.70
2019-04-25T09:25:26.788Z,3.13
2019-04-25T09:27:55.488Z,2.75
2019-04-25T09:30:25.117Z,3.83
2019-04-25T09:32:54.297Z,2.53
2019-04-25T09:35:25.656Z,2.55
2019-04-25T09:37:55.519Z,2.67
2019-04-25T09:40:24.897Z,3.00
2019-04-25T09:42:54.341Z,2.20
2019-04-25T09:45:26.145Z,2.70
2019-04-25T09:47:54.532Z,2.30
2019-04-25T09:50:21.478Z,2.30
2019-04-25T09:52:49.850Z,2.27
2019-04-25T09:55:16.428Z,2.50
2019-04-25T09:57:44.519Z,2.50
2019-04-25T10:00:13.258Z,2.00
2019-04-25T10:02:40.306Z,2.13
2019-04-25T10:05:07.710Z,2.20
2019-04-25T10:07:40.548Z,1.98
2019-04-25T10:10:08.655Z,2.83
2019-04-25T10:12:39.008Z,2.40
2019-04-25T10:15:05.895Z,2.60
2019-04-25T10:17:37.722Z,2.77
2019-04-25T10:20:08.987Z,2.25
2019-04-25T10:22:35.818Z,1.90
2019-04-25T10:25:04.752Z,2.20
2019-04-25T10:30:20.711Z,2.20
2019-04-25T10:32:48.723Z,2.37
2019-04-25T10:35:15.554Z,2.30
2019-04-25T10:37:46.562Z,2.23
2019-04-25T10:40:16.427Z,2.90
2019-04-25T10:42:46.456Z,2.20
2019-04-25T10:45:23.202Z,2.20
2019-04-25T10:47:45.316Z,2.23
2019-04-25T10:50:13.535Z,2.10
2019-04-25T10:52:44.505Z,2.05
2019-04-25T10:55:11.761Z,2.17
2019-04-25T10:57:39.681Z,2.23
2019-04-25T11:00:09.488Z,2.13
2019-04-25T11:02:37.324Z,2.17
2019-04-25T11:05:04.495Z,2.03
2019-04-25T11:07:34.065Z,2.57
2019-04-25T11:10:04.928Z,2.10
2019-04-25T11:12:33.792Z,2.20
2019-04-25T11:15:00.955Z,2.13
2019-04-25T11:17:33.886Z,2.22
2019-04-25T11:20:03.605Z,1.87
2019-04-25T11:22:29.239Z,2.00
2019-04-25T11:24:56.421Z,1.90
2019-04-25T11:27:25.046Z,2.13
2019-04-25T11:30:10.492Z,2.08
2019-04-25T11:32:26.731Z,1.90
2019-04-25T11:34:57.270Z,1.87
2019-04-25T11:37:23.916Z,2.00
2019-04-25T11:42:39.108Z,2.47
2019-04-25T11:45:08.829Z,2.23
2019-04-25T11:47:39.396Z,2.23
2019-04-25T11:50:22.258Z,1.98
2019-04-25T11:52:53.082Z,2.13
2019-04-25T11:55:21.800Z,1.80
2019-04-25T11:57:54.706Z,2.20
2019-04-25T12:00:24.021Z,2.13
2019-04-25T12:02:52.354Z,2.47
2019-04-25T12:05:23.479Z,1.90
2019-04-25T12:07:55.133Z,2.47
2019-04-25T12:10:30.536Z,2.17
2019-04-25T12:12:57.868Z,2.47
2019-04-25T12:15:24.762Z,1.90
2019-04-25T12:17:56.047Z,2.47
2019-04-25T12:20:22.964Z,2.24
2019-04-25T12:22:51.575Z,2.20
2019-04-25T12:25:19.959Z,2.00
2019-04-25T12:27:49.954Z,2.20
2019-04-25T12:30:19.759Z,2.30
2019-04-25T12:32:47.930Z,2.20
2019-04-25T12:35:14.983Z,2.40
2019-04-25T12:37:45.646Z,2.17
2019-04-25T12:40:14.044Z,2.27
2019-04-25T12:42:42.195Z,2.20
2019-04-25T12:45:09.384Z,2.00
2019-04-25T12:47:38.802Z,2.00
2019-04-25T12:50:09.363Z,1.90
2019-04-25T12:52:37.554Z,1.70
2019-04-25T12:55:05.333Z,1.90
2019-04-25T12:57:35.075Z,2.10
2019-04-25T13:00:04.058Z,1.80
2019-04-25T13:02:36.348Z,1.77
2019-04-25T13:05:01.873Z,2.10
2019-04-25T13:07:29.099Z,2.27
2019-04-25T13:09:57.206Z,1.50
2019-04-25T13:12:26.778Z,2.20
2019-04-25T13:14:54.547Z,1.90
2019-04-25T13:17:24.204Z,2.00
2019-04-25T13:19:51.387Z,1.83
2019-04-25T13:22:20.223Z,2.00
2019-04-25T13:24:49.538Z,1.90
2019-04-25T13:27:18.789Z,1.90
2019-04-25T13:29:47.856Z,1.62
2019-04-25T13:32:14.677Z,2.10
2019-04-25T13:34:41.554Z,1.60
2019-04-25T13:37:08.950Z,1.80
2019-04-25T13:39:37.871Z,2.40
2019-04-25T13:42:07.961Z,2.27
2019-04-25T13:44:36.088Z,2.75
2019-04-25T13:47:04.974Z,2.00
2019-04-25T13:49:37.381Z,1.90
2019-04-25T13:52:05.890Z,2.30
2019-04-25T13:54:50.366Z,2.10
2019-04-25T13:57:18.235Z,2.30
2019-04-25T13:59:49.394Z,1.98
2019-04-25T14:02:20.271Z,2.10
2019-04-25T14:04:48.756Z,2.00
2019-04-25T14:07:19.170Z,2.40
2019-04-25T14:09:48.696Z,2.50
2019-04-25T14:12:17.148Z,1.97
2019-04-25T14:14:44.346Z,1.87
2019-04-25T14:17:13.807Z,2.05
2019-04-25T14:19:40.599Z,2.26
2019-04-25T14:22:10.664Z,1.90
2019-04-25T14:24:39.435Z,2.00
2019-04-25T14:27:06.594Z,1.92
2019-04-25T14:29:35.615Z,2.20
2019-04-25T14:32:06.209Z,2.07
2019-04-25T14:34:33.785Z,2.70
2019-04-25T14:37:03.066Z,2.30
2019-04-25T14:39:32.302Z,2.33
2019-04-25T14:42:00.128Z,2.33
2019-04-25T14:44:31.259Z,2.40
2019-04-25T14:46:58.590Z,2.37
2019-04-25T14:49:26.304Z,2.30
2019-04-25T14:54:26.375Z,2.70
2019-04-25T14:56:53.519Z,3.17
2019-04-25T14:59:24.456Z,2.63
2019-04-25T15:01:51.715Z,3.12
2019-04-25T15:04:19.606Z,2.70
2019-04-25T15:06:48.851Z,2.22
2019-04-25T15:09:17.677Z,2.50
2019-04-25T15:11:44.357Z,2.30
2019-04-25T15:14:13.294Z,2.80
2019-04-25T15:16:42.486Z,2.73
2019-04-25T15:19:09.350Z,2.97
2019-04-25T15:21:38.907Z,2.70
2019-04-25T15:24:08.375Z,2.70
2019-04-25T15:26:35.597Z,2.85
2019-04-25T15:29:03.521Z,2.70
2019-04-25T15:31:32.024Z,3.00
2019-04-25T15:34:02.241Z,2.60
2019-04-25T15:36:28.512Z,2.33
2019-04-25T15:38:58.774Z,2.75
2019-04-25T15:41:28.317Z,2.50
2019-04-25T15:43:58.050Z,2.87
2019-04-25T15:46:30.177Z,3.10
2019-04-25T15:49:00.472Z,2.93
2019-04-25T15:51:30.467Z,3.07
2019-04-25T15:53:58.438Z,2.90
2019-04-25T15:56:25.685Z,3.27
2019-04-25T15:58:56.600Z,2.83
2019-04-25T16:01:26.488Z,3.12
2019-04-25T16:03:53.325Z,3.20
2019-04-25T16:06:23.826Z,2.93
2019-04-25T16:08:52.198Z,3.65
2019-04-25T16:11:19.376Z,2.97
2019-04-25T16:13:48.498Z,3.00
2019-04-25T16:16:15.604Z,3.73
2019-04-25T16:18:44.610Z,3.30
2019-04-25T16:21:14.850Z,3.00
2019-04-25T16:23:44.998Z,2.92
2019-04-25T16:26:11.808Z,3.50
2019-04-25T16:28:40.006Z,3.30
2019-04-25T16:31:08.101Z,3.57
2019-04-25T16:33:35.665Z,2.63
2019-04-25T16:36:21.956Z,3.00
2019-04-25T16:38:50.087Z,3.27
2019-04-25T16:41:18.801Z,3.20
2019-04-25T16:43:48.141Z,3.37
2019-04-25T16:46:14.986Z,2.73
2019-04-25T16:48:44.475Z,2.70
2019-04-25T16:51:18.158Z,2.50
2019-04-25T16:53:45.024Z,3.50
2019-04-25T16:56:16.455Z,2.70
2019-04-25T16:58:45.461Z,3.03
2019-04-25T17:01:15.060Z,3.60
2019-04-25T17:03:42.005Z,3.50
2019-04-25T17:06:10.712Z,3.20
2019-04-25T17:08:40.300Z,2.65
2019-04-25T17:11:07.184Z,3.33
2019-04-25T17:13:38.015Z,3.15
2019-04-25T17:16:06.357Z,3.00
2019-04-25T17:18:36.540Z,2.80
2019-04-25T17:21:05.818Z,2.90
2019-04-25T17:23:34.787Z,3.25
2019-04-25T17:26:01.671Z,2.43
2019-04-25T17:28:30.318Z,3.13
2019-04-25T17:30:58.421Z,2.63
2019-04-25T17:33:28.953Z,2.57
2019-04-25T17:35:55.523Z,2.42
2019-04-25T17:38:23.619Z,2.93
2019-04-25T17:40:50.887Z,2.97
2019-04-25T17:43:19.863Z,3.23
2019-04-25T17:45:47.515Z,3.10
2019-04-25T17:48:16.699Z,2.70
2019-04-25T17:50:45.935Z,2.83
2019-04-25T17:53:13.113Z,2.87
2019-04-25T17:55:43.827Z,2.77
2019-04-25T17:58:12.944Z,2.83
2019-04-25T18:00:39.710Z,3.03
2019-04-25T18:03:09.144Z,2.83
2019-04-25T18:05:39.267Z,3.27
2019-04-25T18:08:10.522Z,2.63
2019-04-25T18:10:41.923Z,2.42
2019-04-25T18:13:10.531Z,2.60
2019-04-25T18:15:41.726Z,2.37
2019-04-25T18:18:11.356Z,2.50
2019-04-25T18:20:43.142Z,2.50
2019-04-25T18:23:10.021Z,2.83
2019-04-25T18:25:39.129Z,2.80
2019-04-25T18:28:07.845Z,2.77
2019-04-25T18:30:36.936Z,3.00
2019-04-25T18:33:10.579Z,2.60
2019-04-25T18:35:39.170Z,2.73
2019-04-25T18:38:07.344Z,2.90
2019-04-25T18:43:14.929Z,2.60
2019-04-25T18:45:52.330Z,2.52
2019-04-25T18:48:29.572Z,2.97
2019-04-25T18:50:59.743Z,2.62
2019-04-25T18:53:27.492Z,2.73
2019-04-25T18:55:56.607Z,2.50
2019-04-25T18:58:25.686Z,2.93
2019-04-25T19:00:52.818Z,2.92
2019-04-25T19:03:25.911Z,2.53
2019-04-25T19:05:51.572Z,2.62
2019-04-25T19:08:21.426Z,2.50
2019-04-25T19:10:48.493Z,2.68
2019-04-25T19:13:18.744Z,2.62
2019-04-25T19:15:49.599Z,3.03
2019-04-25T19:18:17.323Z,2.72
2019-04-25T19:20:46.034Z,2.50
2019-04-25T19:23:16.690Z,2.53
2019-04-25T19:25:48.551Z,3.00
2019-04-25T19:31:07.219Z,3.87
2019-04-25T19:33:35.800Z,3.60
2019-04-25T19:36:03.015Z,2.37
2019-04-25T19:38:33.349Z,2.97
2019-04-25T19:41:02.543Z,2.70
2019-04-25T19:43:34.222Z,3.17
2019-04-25T19:46:06.505Z,2.95
2019-04-25T19:48:34.159Z,2.77
2019-04-25T19:51:02.345Z,3.03
2019-04-25T19:56:15.967Z,2.92
2019-04-25T19:58:45.004Z,3.02
2019-04-25T20:01:15.182Z,3.45
2019-04-25T20:03:54.990Z,2.37
2019-04-25T20:06:15.017Z,2.83
2019-04-25T20:08:42.465Z,3.27
2019-04-25T20:11:18.284Z,2.36
2019-04-25T20:13:49.243Z,2.85
2019-04-25T20:16:21.371Z,3.67
2019-04-25T20:18:51.906Z,3.03
2019-04-25T20:21:26.033Z,3.70
2019-04-25T20:23:54.460Z,3.00
2019-04-25T20:26:24.706Z,3.40
2019-04-25T20:28:53.558Z,3.37
2019-04-25T20:31:26.793Z,3.10
2019-04-25T20:34:05.402Z,2.80
2019-04-25T20:36:28.720Z,3.73
2019-04-25T20:38:57.910Z,3.00
2019-04-25T20:41:32.905Z,3.17
2019-04-25T20:44:01.817Z,3.10
2019-04-25T20:46:31.009Z,3.30
2019-04-25T20:49:03.534Z,2.73
2019-04-25T20:51:33.293Z,3.00
2019-04-25T20:54:02.678Z,2.92
2019-04-25T20:56:32.802Z,2.70
2019-04-25T20:59:00.957Z,3.07
2019-04-25T21:01:30.006Z,3.77
2019-04-25T21:04:13.282Z,3.10
2019-04-25T21:06:40.081Z,2.97
2019-04-25T21:09:07.201Z,2.80
2019-04-25T21:11:41.688Z,3.00
2019-04-25T21:14:07.533Z,3.25
2019-04-25T21:19:02.724Z,3.05
2019-04-25T21:21:33.849Z,2.73
2019-04-25T21:24:09.695Z,3.25
2019-04-25T21:26:40.389Z,3.20
2019-04-25T21:29:10.932Z,2.95
2019-04-25T21:31:45.191Z,2.80
2019-04-25T21:34:25.478Z,2.90
2019-04-25T21:39:19.414Z,3.00
2019-04-25T21:41:48.527Z,3.50
2019-04-25T21:44:17.716Z,3.65
2019-04-25T21:46:48.529Z,2.65
2019-04-25T21:49:16.655Z,3.60
2019-04-25T21:51:45.289Z,3.50
2019-04-25T21:54:15.764Z,2.90
2019-04-25T21:56:43.296Z,2.80
2019-04-25T22:01:45.210Z,3.15
2019-04-25T22:04:20.052Z,3.65
2019-04-25T22:06:46.979Z,3.40
2019-04-25T22:09:14.775Z,3.50
2019-04-25T22:11:42.202Z,3.60
2019-04-25T22:14:12.875Z,3.70
2019-04-25T22:16:41.238Z,3.63
2019-04-25T22:19:10.506Z,3.57
2019-04-25T22:21:41.143Z,3.93
2019-04-25T22:24:14.814Z,3.50
2019-04-25T23:08:38.140Z,4.80
2019-04-25T23:11:08.845Z,4.62
2019-04-25T23:13:37.360Z,4.40
2019-04-25T23:16:05.096Z,4.60
2019-04-25T23:20:58.867Z,4.17
2019-04-25T23:23:32.232Z,4.30
2019-04-25T23:25:57.127Z,4.00
2019-04-25T23:28:25.958Z,4.30
2019-04-25T23:30:54.270Z,4.03
2019-04-25T23:33:23.871Z,4.35
2019-04-25T23:35:52.947Z,3.80
2019-04-25T23:38:22.086Z,4.05
2019-04-25T23:40:52.222Z,3.80
2019-04-25T23:43:19.592Z,4.10
2019-04-25T23:45:46.668Z,3.40
2019-04-25T23:48:14.477Z,3.77
2019-04-25T23:50:45.642Z,3.93
2019-04-25T23:53:21.201Z,3.73
2019-04-25T23:55:50.355Z,3.87
2019-04-25T23:58:18.316Z,4.57
